Time;durP1;ratioP1;P1;durP2;ratioP2;P2;SDS_P1;SDS_P2;PMS_P1;PMS_P2;Temp;Humidity;BMP_temperature;BMP_pressure;BME280_temperature;BME280_humidity;BME280_pressure;Samples;Min_cycle;Max_cycle;Signal;HPM_P1;HPM_P2
2023/04/20 05:03:26;;;;;;;10.38;7.50;;;2.40;99.90;;;;;;5032510;23;20077;-73
2023/04/20 05:05:52;;;;;;;12.95;7.88;;;2.30;99.90;;;;;;4967039;29;20039;-72
2023/04/20 05:08:18;;;;;;;12.70;8.07;;;2.40;99.90;;;;;;4966202;29;20182;-73
2023/04/20 05:10:43;;;;;;;12.45;7.25;;;2.40;99.90;;;;;;4966426;29;20197;-72
2023/04/20 05:13:09;;;;;;;11.93;7.10;;;2.40;99.90;;;;;;4966686;29;20090;-74
2023/04/20 05:15:35;;;;;;;10.07;6.53;;;2.50;99.90;;;;;;4966133;29;20035;-74
2023/04/20 05:18:01;;;;;;;9.85;7.32;;;2.60;99.90;;;;;;4966660;29;20037;-71
2023/04/20 05:20:27;;;;;;;9.18;6.65;;;2.70;99.90;;;;;;4965747;29;20089;-72
2023/04/20 05:22:53;;;;;;;11.68;6.95;;;2.80;99.90;;;;;;4966657;29;20035;-73
2023/04/20 05:25:19;;;;;;;9.70;6.70;;;2.90;99.90;;;;;;4966318;29;20050;-73
2023/04/20 05:27:45;;;;;;;9.68;6.40;;;2.90;99.90;;;;;;4966644;29;20027;-74
2023/04/20 05:30:11;;;;;;;10.38;6.75;;;2.90;99.90;;;;;;4966926;29;20043;-73
2023/04/20 05:32:36;;;;;;;8.73;6.18;;;3.00;99.90;;;;;;4966225;29;20027;-74
2023/04/20 05:35:03;;;;;;;10.13;6.40;;;3.10;99.90;;;;;;4966427;29;20351;-73
2023/04/20 05:37:28;;;;;;;9.40;6.22;;;3.20;99.90;;;;;;4966077;29;20053;-72
2023/04/20 05:39:54;;;;;;;11.77;6.57;;;3.30;99.90;;;;;;4966327;29;20352;-72
2023/04/20 05:42:20;;;;;;;11.48;6.53;;;3.40;99.90;;;;;;4965619;29;20035;-71
2023/04/20 05:44:45;;;;;;;12.50;6.40;;;3.40;99.90;;;;;;4966008;29;20042;-71
2023/04/20 05:47:11;;;;;;;10.32;6.65;;;3.50;99.90;;;;;;4949235;29;20031;-72
2023/04/20 05:49:37;;;;;;;8.38;6.15;;;3.50;99.90;;;;;;4965329;29;20042;-72
2023/04/20 05:52:03;;;;;;;10.13;6.47;;;3.60;99.90;;;;;;4966290;29;20042;-70
2023/04/20 05:54:28;;;;;;;9.93;6.30;;;3.70;99.90;;;;;;4965823;29;20086;-73
2023/04/20 05:56:55;;;;;;;10.38;6.88;;;3.80;99.90;;;;;;4966088;29;20027;-72
2023/04/20 05:59:20;;;;;;;10.82;6.60;;;3.80;99.90;;;;;;4965457;29;20309;-72
2023/04/20 06:01:46;;;;;;;14.10;7.30;;;3.90;99.90;;;;;;4965461;29;20054;-73
2023/04/20 06:04:12;;;;;;;9.93;6.22;;;4.00;99.90;;;;;;4963875;29;20023;-72
2023/04/20 06:06:38;;;;;;;9.10;6.22;;;4.10;99.90;;;;;;4965072;29;20031;-73
2023/04/20 06:09:04;;;;;;;11.63;5.85;;;4.20;99.90;;;;;;4941855;29;20090;-73
2023/04/20 06:11:31;;;;;;;7.95;6.07;;;4.40;99.90;;;;;;4947386;29;20058;-73
2023/04/20 06:13:57;;;;;;;10.68;6.60;;;4.50;99.90;;;;;;4929516;29;20123;-75
2023/04/20 06:16:22;;;;;;;11.60;6.40;;;4.70;99.90;;;;;;4960725;29;20050;-73
2023/04/20 06:18:48;;;;;;;12.02;6.28;;;4.80;99.90;;;;;;4965457;29;20324;-73
2023/04/20 06:21:16;;;;;;;10.88;6.38;;;4.90;99.90;;;;;;4923062;29;20182;-73
2023/04/20 06:23:44;;;;;;;10.97;5.80;;;5.00;99.90;;;;;;4965465;29;20106;-74
2023/04/20 06:26:10;;;;;;;9.60;5.70;;;5.10;99.90;;;;;;4929921;29;20027;-74
2023/04/20 06:28:37;;;;;;;11.50;6.50;;;5.20;99.90;;;;;;4947680;29;20023;-72
2023/04/20 06:31:03;;;;;;;9.35;5.95;;;5.20;99.90;;;;;;4949580;29;20031;-72
2023/04/20 06:33:29;;;;;;;10.15;6.10;;;5.30;99.90;;;;;;4930676;29;20038;-72
2023/04/20 06:35:55;;;;;;;8.30;5.65;;;5.30;99.90;;;;;;4949047;29;20031;-73
2023/04/20 06:38:22;;;;;;;9.88;5.80;;;5.40;99.90;;;;;;4948317;29;20030;-74
2023/04/20 06:40:48;;;;;;;11.43;5.80;;;5.50;99.90;;;;;;4965658;29;20027;-73
2023/04/20 06:43:14;;;;;;;11.60;6.18;;;5.60;99.90;;;;;;4964666;29;20257;-71
2023/04/20 06:45:40;;;;;;;10.73;5.57;;;5.70;99.90;;;;;;4964480;29;20027;-72
2023/04/20 06:48:07;;;;;;;11.52;5.82;;;5.80;99.90;;;;;;4932110;29;20102;-73
2023/04/20 06:50:33;;;;;;;11.57;5.60;;;5.90;99.90;;;;;;4931625;29;20054;-73
2023/04/20 06:52:59;;;;;;;10.70;5.65;;;6.10;99.90;;;;;;4964452;29;20229;-72
2023/04/20 06:55:25;;;;;;;10.20;5.85;;;6.20;99.90;;;;;;4947471;29;20035;-72
2023/04/20 06:57:51;;;;;;;13.60;6.15;;;6.30;99.90;;;;;;4931182;29;20027;-73
2023/04/20 07:00:17;;;;;;;7.43;5.32;;;6.60;99.90;;;;;;4947259;29;20026;-73
2023/04/20 07:02:47;;;;;;;7.53;4.80;;;6.60;99.90;;;;;;4947063;29;20101;-74
2023/04/20 07:05:13;;;;;;;8.35;5.32;;;6.80;99.90;;;;;;4964670;29;20045;-71
2023/04/20 07:07:40;;;;;;;7.20;5.60;;;6.90;99.90;;;;;;4964115;29;20102;-73
2023/04/20 07:10:08;;;;;;;9.82;5.70;;;6.90;99.90;;;;;;4964814;29;20027;-73
2023/04/20 07:12:37;;;;;;;9.60;6.30;;;7.00;99.90;;;;;;4964219;29;20132;-72
2023/04/20 07:15:04;;;;;;;8.27;5.60;;;7.20;99.90;;;;;;4947638;29;20035;-72
2023/04/20 07:17:30;;;;;;;13.13;6.70;;;7.30;99.90;;;;;;4931215;29;20368;-73
2023/04/20 07:19:56;;;;;;;9.05;5.72;;;7.30;99.90;;;;;;4964461;29;20046;-73
2023/04/20 07:22:22;;;;;;;11.13;6.10;;;7.20;99.90;;;;;;4952840;29;20031;-73
2023/04/20 07:24:48;;;;;;;9.07;5.70;;;7.20;99.90;;;;;;4963388;29;20360;-74
2023/04/20 07:27:14;;;;;;;8.93;6.05;;;7.00;99.90;;;;;;4964349;29;20031;-74
2023/04/20 07:29:40;;;;;;;8.02;5.30;;;7.00;99.90;;;;;;4930681;29;20066;-73
2023/04/20 07:32:06;;;;;;;10.55;5.53;;;7.30;99.90;;;;;;4964494;29;20082;-75
2023/04/20 07:34:31;;;;;;;12.77;6.28;;;7.50;99.90;;;;;;4963876;29;20026;-75
2023/04/20 07:36:57;;;;;;;10.70;6.05;;;7.80;99.90;;;;;;4946794;29;20148;-74
2023/04/20 07:39:24;;;;;;;12.73;6.35;;;8.10;99.90;;;;;;4963952;29;20118;-75
2023/04/20 07:41:50;;;;;;;10.93;5.95;;;8.50;99.90;;;;;;4964438;29;20039;-74
2023/04/20 07:44:15;;;;;;;8.65;5.70;;;8.80;99.90;;;;;;4964527;29;20038;-73
2023/04/20 07:46:41;;;;;;;8.10;5.32;;;8.90;99.00;;;;;;4964266;29;20027;-73
2023/04/20 07:49:06;;;;;;;8.73;6.13;;;8.90;99.00;;;;;;4964424;29;20027;-73
2023/04/20 07:51:33;;;;;;;10.07;5.30;;;9.00;98.90;;;;;;4964094;29;20301;-73
2023/04/20 07:53:59;;;;;;;9.00;5.53;;;9.10;98.70;;;;;;4964383;29;20297;-73
2023/04/20 07:56:25;;;;;;;7.38;4.97;;;9.30;98.20;;;;;;4963188;29;20027;-74
2023/04/20 07:58:51;;;;;;;8.30;4.78;;;9.50;97.90;;;;;;4956047;29;20019;-73
2023/04/20 08:01:16;;;;;;;9.88;5.20;;;9.80;97.40;;;;;;4963624;29;20348;-74
2023/04/20 08:04:00;;;;;;;8.40;4.88;;;10.00;96.70;;;;;;4963465;29;20027;-72
2023/04/20 08:06:26;;;;;;;8.85;5.30;;;10.30;96.20;;;;;;4963513;29;20042;-73
2023/04/20 08:08:52;;;;;;;8.25;5.93;;;10.20;96.00;;;;;;4948600;29;20015;-73
2023/04/20 08:11:18;;;;;;;7.53;4.80;;;10.10;96.10;;;;;;4968467;29;20042;-72
2023/04/20 08:13:44;;;;;;;8.25;5.15;;;9.90;96.50;;;;;;4950329;29;20035;-74
2023/04/20 08:16:15;;;;;;;9.93;5.20;;;9.70;96.60;;;;;;4950364;29;20293;-73
2023/04/20 08:18:53;;;;;;;11.15;5.53;;;9.50;96.70;;;;;;4949761;29;20094;-73
2023/04/20 08:21:25;;;;;;;12.30;5.50;;;9.40;96.90;;;;;;4967310;29;20115;-72
2023/04/20 08:23:53;;;;;;;10.18;5.40;;;9.20;97.30;;;;;;4933734;29;20027;-74
2023/04/20 08:26:19;;;;;;;9.45;5.47;;;9.10;97.40;;;;;;4967478;29;20031;-72
2023/04/20 08:28:45;;;;;;;9.75;5.45;;;8.90;97.40;;;;;;4966832;29;20019;-74
2023/04/20 08:31:13;;;;;;;7.78;5.20;;;8.70;98.00;;;;;;4967193;29;20053;-72
2023/04/20 08:33:39;;;;;;;9.48;5.40;;;8.60;98.40;;;;;;4934025;29;20094;-74
2023/04/20 08:36:19;;;;;;;10.13;5.80;;;8.50;98.80;;;;;;4933548;29;20082;-73
2023/04/20 08:38:50;;;;;;;8.63;5.93;;;8.40;98.90;;;;;;4966768;29;20027;-73
2023/04/20 08:41:21;;;;;;;9.15;5.88;;;8.40;99.20;;;;;;4966917;29;20030;-75
2023/04/20 08:43:48;;;;;;;12.20;6.38;;;8.40;99.30;;;;;;4950193;29;20055;-73
2023/04/20 08:46:16;;;;;;;13.13;7.20;;;8.30;99.40;;;;;;4933387;29;20039;-74
2023/04/20 08:48:45;;;;;;;13.52;6.65;;;8.30;99.60;;;;;;4949720;29;20721;-75
2023/04/20 08:51:11;;;;;;;;;;;8.30;99.70;;;;;;4967385;29;20031;-75
2023/04/20 08:53:36;;;;;;;12.52;6.97;;;8.30;99.60;;;;;;4966725;29;20207;-77
2023/04/20 08:56:08;;;;;;;;;;;8.30;99.90;;;;;;4948611;29;20020;-77
2023/04/20 08:58:34;;;;;;;11.02;6.15;;;8.30;99.90;;;;;;4938613;29;19907;-75
2023/04/20 09:01:00;;;;;;;11.00;6.15;;;8.30;99.90;;;;;;4949618;29;20038;-76
2023/04/20 09:03:33;;;;;;;10.32;6.13;;;8.30;99.90;;;;;;4962911;29;20059;-76
2023/04/20 09:05:58;;;;;;;8.43;5.35;;;8.30;99.90;;;;;;4967223;29;20034;-73
2023/04/20 09:08:35;;;;;;;9.05;6.28;;;8.30;99.90;;;;;;4966134;29;20039;-73
2023/04/20 09:11:01;;;;;;;11.68;6.05;;;8.30;99.90;;;;;;4966681;28;20035;-73
2023/04/20 09:13:27;;;;;;;9.73;6.30;;;8.40;99.90;;;;;;4966169;29;20309;-71
2023/04/20 09:15:53;;;;;;;25.55;10.00;;;8.40;99.90;;;;;;4966552;28;20360;-70
2023/04/20 09:18:19;;;;;;;11.18;6.20;;;8.30;99.90;;;;;;4966495;28;20027;-72
2023/04/20 09:20:45;;;;;;;8.18;5.65;;;8.30;99.90;;;;;;4965517;28;20043;-70
2023/04/20 09:23:16;;;;;;;10.00;6.55;;;8.20;99.90;;;;;;4966358;28;20300;-71
2023/04/20 09:25:45;;;;;;;11.73;6.82;;;8.10;99.90;;;;;;4967631;29;20050;-71
2023/04/20 09:28:12;;;;;;;10.80;6.00;;;8.10;99.90;;;;;;4967116;28;20094;-71
2023/04/20 09:30:43;;;;;;;10.93;6.38;;;8.20;99.90;;;;;;4965350;28;20031;-70
2023/04/20 09:33:11;;;;;;;9.10;6.30;;;8.20;99.90;;;;;;4966336;28;20127;-71
2023/04/20 09:35:41;;;;;;;8.35;6.25;;;8.40;99.90;;;;;;4964439;29;20128;-71
2023/04/20 09:38:08;;;;;;;10.77;6.28;;;8.50;99.90;;;;;;4965788;29;20098;-70
2023/04/20 09:40:37;;;;;;;11.40;6.03;;;8.70;99.90;;;;;;4965900;28;20038;-70
2023/04/20 09:43:18;;;;;;;10.70;5.85;;;8.80;99.90;;;;;;4966136;28;20026;-72
2023/04/20 09:45:44;;;;;;;12.25;6.13;;;8.90;99.60;;;;;;4965771;28;20216;-71
2023/04/20 09:48:11;;;;;;;10.40;5.90;;;8.90;99.50;;;;;;4966163;28;20039;-71
2023/04/20 09:50:37;;;;;;;10.30;6.13;;;8.80;99.20;;;;;;4965244;28;20050;-71
2023/04/20 09:53:06;;;;;;;10.40;6.32;;;8.70;99.50;;;;;;4965929;28;20031;-71
2023/04/20 09:55:32;;;;;;;8.65;5.80;;;8.70;99.90;;;;;;4959236;29;20020;-72
2023/04/20 09:58:03;;;;;;;9.93;5.97;;;8.80;99.90;;;;;;4956443;29;20027;-71
2023/04/20 10:00:29;;;;;;;9.57;5.65;;;8.90;99.80;;;;;;4965383;28;20142;-71
2023/04/20 10:02:58;;;;;;;10.07;5.82;;;8.80;99.90;;;;;;4964998;29;20043;-74
2023/04/20 10:05:38;;;;;;;9.13;5.72;;;8.80;99.90;;;;;;4965838;29;20270;-71
2023/04/20 10:08:05;;;;;;;12.38;5.78;;;8.90;99.80;;;;;;4965431;29;20043;-70
2023/04/20 10:10:41;;;;;;;9.75;6.00;;;8.90;99.90;;;;;;4965199;29;20035;-71
2023/04/20 10:13:07;;;;;;;10.38;5.63;;;8.90;99.90;;;;;;4965752;29;20062;-72
2023/04/20 10:15:40;;;;;;;11.27;5.88;;;8.90;99.80;;;;;;4965003;29;20043;-72
2023/04/20 10:18:17;;;;;;;9.82;5.80;;;9.00;99.90;;;;;;4964702;29;20046;-71
2023/04/20 10:20:43;;;;;;;8.88;5.68;;;9.10;99.70;;;;;;4965083;29;20031;-72
2023/04/20 10:23:10;;;;;;;8.85;5.93;;;9.20;99.90;;;;;;4965585;29;20035;-71
2023/04/20 10:25:36;;;;;;;8.65;5.82;;;9.30;99.30;;;;;;4965544;29;20023;-71
2023/04/20 10:28:07;;;;;;;9.05;5.93;;;9.40;99.60;;;;;;4965224;29;20386;-71
2023/04/20 10:30:32;;;;;;;8.95;6.40;;;9.50;99.60;;;;;;4964946;29;20049;-72
2023/04/20 10:33:10;;;;;;;10.43;6.07;;;9.50;99.80;;;;;;4964479;28;20232;-71
2023/04/20 10:35:55;;;;;;;8.18;5.65;;;9.60;99.90;;;;;;4964928;29;20039;-71
2023/04/20 10:38:46;;;;;;;9.60;6.70;;;9.60;99.90;;;;;;4948654;29;20087;-74
2023/04/20 10:41:12;;;;;;;8.73;6.10;;;9.50;99.90;;;;;;4951302;29;20111;-73
2023/04/20 10:43:41;;;;;;;10.13;5.97;;;9.50;99.90;;;;;;4947569;29;20023;-72
2023/04/20 10:46:17;;;;;;;8.90;6.35;;;9.40;99.90;;;;;;4947986;29;20114;-72
2023/04/20 10:48:55;;;;;;;8.65;5.93;;;9.50;99.90;;;;;;4964711;29;20189;-71
2023/04/20 10:51:22;;;;;;;8.43;5.38;;;9.60;99.90;;;;;;4964867;29;20035;-73
2023/04/20 10:54:17;;;;;;;7.05;5.10;;;9.60;99.90;;;;;;4964343;29;20024;-73
2023/04/20 10:56:48;;;;;;;6.15;4.40;;;9.40;99.90;;;;;;4947269;29;20042;-74
2023/04/20 10:59:19;;;;;;;8.32;4.85;;;9.30;99.90;;;;;;4965260;29;20225;-71
2023/04/20 11:01:46;;;;;;;7.97;4.78;;;9.20;99.90;;;;;;4964097;29;20109;-71
2023/04/20 11:04:12;;;;;;;6.43;4.63;;;9.10;99.90;;;;;;4947966;29;20070;-70
2023/04/20 11:06:40;;;;;;;5.95;4.47;;;9.20;99.90;;;;;;4964445;29;20221;-71
2023/04/20 11:09:39;;;;;;;6.75;4.70;;;9.40;99.90;;;;;;4964689;29;20090;-71
2023/04/20 11:12:07;;;;;;;6.85;5.22;;;9.40;99.90;;;;;;4922074;29;20051;-73
2023/04/20 11:14:37;;;;;;;7.53;5.18;;;9.40;99.90;;;;;;4964352;29;20213;-71
2023/04/20 11:17:03;;;;;;;8.52;5.25;;;9.40;99.90;;;;;;4952463;29;20061;-72
2023/04/20 11:19:34;;;;;;;7.35;5.43;;;9.50;99.90;;;;;;4946998;29;20074;-71
2023/04/20 11:22:01;;;;;;;7.20;4.65;;;9.60;99.90;;;;;;4951714;29;20034;-72
2023/04/20 11:24:32;;;;;;;9.15;5.78;;;9.70;99.90;;;;;;4964495;29;20061;-72
2023/04/20 11:26:58;;;;;;;8.40;5.90;;;9.80;99.90;;;;;;4964445;29;20027;-71
2023/04/20 11:29:32;;;;;;;8.15;5.80;;;9.90;99.90;;;;;;4964789;29;20042;-73
2023/04/20 11:31:59;;;;;;;7.20;5.70;;;9.90;99.90;;;;;;4947374;29;20038;-72
2023/04/20 11:34:25;;;;;;;10.57;6.13;;;10.00;99.90;;;;;;4964428;29;20070;-73
2023/04/20 11:36:51;;;;;;;9.00;6.15;;;10.10;99.90;;;;;;4963558;29;20090;-71
2023/04/20 11:39:28;;;;;;;8.15;5.90;;;10.10;99.90;;;;;;4964286;29;20101;-71
2023/04/20 11:41:55;;;;;;;10.52;6.80;;;10.20;99.90;;;;;;4964897;29;20076;-72
2023/04/20 11:44:21;;;;;;;10.32;6.95;;;10.00;99.90;;;;;;4966647;28;20376;-72
2023/04/20 11:46:48;;;;;;;10.88;7.35;;;9.90;99.90;;;;;;4937718;29;20190;-71
2023/04/20 11:49:16;;;;;;;10.65;6.32;;;9.80;99.90;;;;;;4951130;29;20065;-71
2023/04/20 11:51:43;;;;;;;9.10;6.90;;;9.80;99.90;;;;;;4955186;29;20042;-75
2023/04/20 11:54:10;;;;;;;9.48;6.55;;;9.70;99.90;;;;;;4967900;29;20293;-72
2023/04/20 11:56:36;;;;;;;9.77;6.68;;;9.80;99.90;;;;;;4967715;29;20101;-72
2023/04/20 11:59:03;;;;;;;9.40;6.65;;;9.80;99.90;;;;;;4968625;29;20385;-72
2023/04/20 12:01:29;;;;;;;10.73;6.75;;;9.70;99.90;;;;;;4967762;29;20059;-72
2023/04/20 12:03:54;;;;;;;11.90;6.72;;;9.60;99.90;;;;;;4967597;29;20026;-72
2023/04/20 12:06:21;;;;;;;10.32;6.60;;;9.60;99.90;;;;;;4967747;29;20034;-71
2023/04/20 12:08:47;;;;;;;9.73;6.30;;;9.50;99.90;;;;;;4967533;29;20035;-73
2023/04/20 12:11:15;;;;;;;9.63;6.70;;;9.40;99.90;;;;;;4967584;29;20039;-73
2023/04/20 12:13:42;;;;;;;9.25;6.95;;;9.50;99.90;;;;;;4950599;29;20031;-71
2023/04/20 12:16:08;;;;;;;9.13;6.93;;;9.50;99.90;;;;;;4967786;29;20313;-70
2023/04/20 12:18:33;;;;;;;10.48;7.10;;;9.40;99.90;;;;;;4967544;29;20078;-70
2023/04/20 12:20:59;;;;;;;10.30;6.85;;;9.50;99.90;;;;;;4967607;29;20043;-71
2023/04/20 12:23:26;;;;;;;14.20;6.45;;;9.50;99.90;;;;;;4968098;29;20047;-70
2023/04/20 12:25:52;;;;;;;10.75;5.72;;;9.60;99.90;;;;;;4967380;29;20186;-71
2023/04/20 12:28:17;;;;;;;7.85;5.40;;;9.60;99.90;;;;;;4950439;29;20098;-71
2023/04/20 12:30:43;;;;;;;9.80;5.57;;;9.70;99.90;;;;;;4950370;29;20079;-71
2023/04/20 12:33:09;;;;;;;7.53;5.22;;;9.70;99.90;;;;;;4967502;29;20026;-71
2023/04/20 12:35:35;;;;;;;7.95;5.80;;;9.70;99.90;;;;;;4966950;29;20313;-71
2023/04/20 12:38:00;;;;;;;10.70;5.88;;;9.70;99.90;;;;;;4967483;29;20027;-72
2023/04/20 12:40:26;;;;;;;7.95;5.43;;;9.80;99.90;;;;;;4967262;29;20023;-70
2023/04/20 12:42:52;;;;;;;8.65;5.80;;;9.90;99.90;;;;;;4966548;29;20035;-71
2023/04/20 12:45:18;;;;;;;10.75;5.88;;;10.00;99.90;;;;;;4967352;29;20034;-71
2023/04/20 12:47:44;;;;;;;8.75;5.28;;;9.90;99.90;;;;;;4966681;29;20031;-71
2023/04/20 12:50:10;;;;;;;8.23;5.65;;;9.90;99.90;;;;;;4966841;29;20035;-69
2023/04/20 12:52:36;;;;;;;8.77;5.30;;;9.90;99.90;;;;;;4966969;29;20309;-70
2023/04/20 12:55:02;;;;;;;9.93;5.28;;;10.00;99.90;;;;;;4963904;29;20023;-70
2023/04/20 12:57:28;;;;;;;8.50;5.13;;;10.00;99.90;;;;;;4966674;29;20019;-72
2023/04/20 12:59:55;;;;;;;8.52;5.22;;;10.00;99.90;;;;;;4949327;29;20046;-71
2023/04/20 13:02:21;;;;;;;9.23;5.32;;;10.10;99.90;;;;;;4966393;29;20070;-71
2023/04/20 13:04:46;;;;;;;10.82;5.38;;;10.10;99.90;;;;;;4966189;29;20328;-71
2023/04/20 13:07:12;;;;;;;10.88;5.43;;;10.10;99.90;;;;;;4966742;29;20043;-71
2023/04/20 13:09:38;;;;;;;7.70;5.30;;;10.10;99.90;;;;;;4965566;29;20039;-71
2023/04/20 13:12:04;;;;;;;9.05;5.18;;;10.30;99.90;;;;;;4966447;29;20042;-72
2023/04/20 13:14:31;;;;;;;7.65;5.43;;;10.30;99.90;;;;;;4966540;29;20090;-72
2023/04/20 13:17:00;;;;;;;7.93;5.43;;;10.20;99.90;;;;;;4966500;29;20042;-75
2023/04/20 13:19:29;;;;;;;7.20;4.93;;;10.10;99.90;;;;;;4966346;29;20039;-71
2023/04/20 13:21:55;;;;;;;6.70;4.80;;;10.00;99.90;;;;;;4965943;29;20097;-72
2023/04/20 13:24:21;;;;;;;8.85;5.18;;;10.00;99.90;;;;;;4966704;29;20039;-72
2023/04/20 13:26:49;;;;;;;6.68;4.30;;;9.90;99.90;;;;;;4966100;29;20035;-73
2023/04/20 13:29:15;;;;;;;11.17;4.53;;;9.90;99.90;;;;;;4966508;29;20031;-70
2023/04/20 13:31:40;;;;;;;5.95;4.40;;;9.90;99.90;;;;;;4965773;29;20451;-71
2023/04/20 13:34:06;;;;;;;6.45;4.70;;;9.80;99.90;;;;;;4966283;29;20031;-72
2023/04/20 13:36:32;;;;;;;6.15;4.35;;;9.80;99.90;;;;;;4966203;29;20043;-70
2023/04/20 13:38:58;;;;;;;8.20;4.75;;;9.80;99.90;;;;;;4966102;29;20023;-71
2023/04/20 13:41:23;;;;;;;7.65;4.40;;;9.90;99.90;;;;;;4966145;29;20051;-69
2023/04/20 13:43:49;;;;;;;7.97;4.93;;;10.00;99.90;;;;;;4965492;29;20306;-71
2023/04/20 13:46:15;;;;;;;7.65;5.18;;;10.00;99.90;;;;;;4966236;29;20038;-71
2023/04/20 13:48:41;;;;;;;6.60;4.45;;;10.10;99.90;;;;;;4965419;29;20031;-72
2023/04/20 13:51:07;;;;;;;7.68;5.03;;;10.10;99.90;;;;;;4965665;29;20089;-71
2023/04/20 13:53:33;;;;;;;8.23;5.25;;;10.10;99.90;;;;;;4933343;29;20351;-71
2023/04/20 13:55:59;;;;;;;7.72;5.55;;;10.10;99.90;;;;;;4964312;29;20107;-69
2023/04/20 13:58:27;;;;;;;8.23;5.70;;;10.20;99.90;;;;;;4965838;29;20047;-73
2023/04/20 14:00:53;;;;;;;9.27;5.13;;;10.20;99.90;;;;;;4948298;29;20055;-69
2023/04/20 14:03:19;;;;;;;7.65;4.75;;;10.10;99.90;;;;;;4965932;29;20066;-70
2023/04/20 14:05:45;;;;;;;7.38;5.22;;;10.20;99.90;;;;;;4965484;29;20031;-69
2023/04/20 14:08:12;;;;;;;7.85;5.28;;;10.30;99.90;;;;;;4965276;28;20035;-71
2023/04/20 14:10:39;;;;;;;6.85;4.65;;;10.20;99.90;;;;;;4964931;29;20254;-70
2023/04/20 14:13:05;;;;;;;7.70;5.53;;;10.20;99.90;;;;;;4965546;29;20035;-69
2023/04/20 14:15:32;;;;;;;8.38;4.85;;;10.30;99.90;;;;;;4965395;29;20035;-71
2023/04/20 14:17:59;;;;;;;8.73;5.45;;;10.30;99.90;;;;;;4964930;29;20483;-70
2023/04/20 14:20:25;;;;;;;6.65;4.93;;;10.30;99.90;;;;;;4948319;29;20035;-68
2023/04/20 14:22:51;;;;;;;7.65;4.82;;;10.30;99.90;;;;;;4965178;29;20026;-70
2023/04/20 14:25:17;;;;;;;7.20;5.18;;;10.20;99.90;;;;;;4965462;29;20050;-70
2023/04/20 14:27:45;;;;;;;8.32;5.20;;;10.10;99.90;;;;;;4965044;29;20083;-71
2023/04/20 14:30:11;;;;;;;6.93;4.90;;;10.10;99.90;;;;;;4965525;29;20039;-70
2023/04/20 14:32:37;;;;;;;7.55;4.90;;;10.10;99.90;;;;;;4964730;29;20261;-71
2023/04/20 14:35:03;;;;;;;10.00;5.55;;;10.10;99.90;;;;;;4965472;29;20035;-70
2023/04/20 14:37:29;;;;;;;9.82;5.65;;;10.10;99.90;;;;;;4965025;29;20039;-71
2023/04/20 14:39:55;;;;;;;8.45;5.32;;;10.00;99.90;;;;;;4964640;29;20062;-72
2023/04/20 14:42:21;;;;;;;9.88;5.57;;;9.80;99.90;;;;;;4965415;29;20122;-71
2023/04/20 14:44:47;;;;;;;8.82;5.43;;;9.70;99.90;;;;;;4964498;29;20313;-71
2023/04/20 14:47:14;;;;;;;8.35;5.30;;;9.70;99.90;;;;;;4965096;29;20352;-71
2023/04/20 14:49:43;;;;;;;7.30;5.50;;;9.70;99.90;;;;;;4964664;29;20054;-70
2023/04/20 14:52:09;;;;;;;8.07;5.40;;;9.60;99.90;;;;;;4965266;29;20111;-71
2023/04/20 14:54:34;;;;;;;7.65;5.15;;;9.60;99.90;;;;;;4947002;29;20028;-70
2023/04/20 14:57:01;;;;;;;7.82;5.40;;;9.60;99.90;;;;;;4964509;29;20090;-71
2023/04/20 14:59:27;;;;;;;7.88;5.20;;;9.60;99.90;;;;;;4965099;29;20046;-72
2023/04/20 15:01:53;;;;;;;7.28;5.07;;;9.50;99.90;;;;;;4964903;29;20063;-70
2023/04/20 15:04:18;;;;;;;9.40;5.68;;;9.40;99.90;;;;;;4965768;29;20059;-71
2023/04/20 15:06:44;;;;;;;7.45;5.10;;;9.40;99.90;;;;;;4965929;29;20046;-72
2023/04/20 15:09:10;;;;;;;6.05;4.47;;;9.30;99.90;;;;;;4932445;29;20028;-69
2023/04/20 15:11:35;;;;;;;7.07;5.05;;;9.20;99.90;;;;;;4964519;29;20099;-69
2023/04/20 15:14:01;;;;;;;8.05;5.20;;;9.30;99.90;;;;;;4947142;29;20021;-71
2023/04/20 15:16:27;;;;;;;8.27;5.18;;;9.20;99.90;;;;;;4964886;29;20034;-71
2023/04/20 15:18:53;;;;;;;7.57;5.18;;;9.20;99.90;;;;;;4963971;28;20023;-71
2023/04/20 15:21:22;;;;;;;8.23;5.18;;;9.10;99.90;;;;;;4964384;29;20038;-71
2023/04/20 15:23:48;;;;;;;7.30;4.95;;;9.10;99.90;;;;;;4963910;29;20098;-71
2023/04/20 15:26:14;;;;;;;8.13;5.38;;;9.10;99.90;;;;;;4966229;29;20044;-76
2023/04/20 15:28:40;;;;;;;8.35;5.50;;;9.10;99.90;;;;;;4947619;29;20031;-70
2023/04/20 15:31:09;;;;;;;10.25;5.40;;;9.10;99.90;;;;;;4964373;29;20039;-71
2023/04/20 15:33:34;;;;;;;8.02;5.60;;;9.00;99.90;;;;;;4964658;29;20023;-71
2023/04/20 15:36:00;;;;;;;7.72;6.18;;;9.10;99.90;;;;;;4963672;29;20051;-72
2023/04/20 15:38:26;;;;;;;7.97;5.70;;;9.00;99.90;;;;;;4964591;29;20335;-70
2023/04/20 15:40:52;;;;;;;10.88;6.30;;;9.00;99.90;;;;;;4964077;29;20027;-76
2023/04/20 15:43:18;;;;;;;9.55;6.35;;;9.00;99.90;;;;;;4964501;29;20028;-74
2023/04/20 15:45:44;;;;;;;8.07;5.90;;;8.90;99.90;;;;;;4964285;29;20094;-69
2023/04/20 15:48:10;;;;;;;9.63;6.60;;;8.90;99.90;;;;;;4963755;29;20217;-73
2023/04/20 15:50:36;;;;;;;10.45;6.80;;;8.80;99.90;;;;;;4964163;29;20336;-72
2023/04/20 15:53:02;;;;;;;11.73;7.00;;;8.80;99.90;;;;;;4963839;29;20313;-70
2023/04/20 15:55:33;;;;;;;9.43;6.63;;;8.70;99.90;;;;;;4943915;29;20062;-73
2023/04/20 15:57:59;;;;;;;12.55;6.70;;;8.80;99.90;;;;;;4961605;29;20027;-71
2023/04/20 16:00:25;;;;;;;8.43;6.63;;;8.90;99.90;;;;;;4964345;29;20035;-72
2023/04/20 16:02:52;;;;;;;9.10;6.65;;;8.90;99.90;;;;;;4963293;29;20194;-71
2023/04/20 16:05:19;;;;;;;10.02;7.25;;;8.90;99.90;;;;;;4964158;29;20082;-73
2023/04/20 16:07:45;;;;;;;10.38;7.40;;;8.80;99.90;;;;;;4963801;29;20039;-71
2023/04/20 16:10:11;;;;;;;10.65;7.43;;;8.80;99.90;;;;;;4964266;29;20340;-71
2023/04/20 16:12:37;;;;;;;9.15;7.38;;;8.90;99.90;;;;;;4963984;29;20027;-72
2023/04/20 16:15:03;;;;;;;10.85;7.57;;;8.80;99.90;;;;;;4963808;29;20287;-71
2023/04/20 16:17:29;;;;;;;9.40;7.43;;;8.70;99.90;;;;;;4963825;29;20035;-72
2023/04/20 16:19:54;;;;;;;9.27;7.25;;;8.70;99.90;;;;;;4930523;29;20313;-73
2023/04/20 16:22:20;;;;;;;10.30;7.30;;;8.70;99.90;;;;;;4947138;29;20332;-72
2023/04/20 16:24:46;;;;;;;10.68;6.53;;;8.70;99.90;;;;;;4963717;29;20204;-73
2023/04/20 16:27:11;;;;;;;12.43;8.05;;;8.70;99.90;;;;;;4963813;29;20201;-73
2023/04/20 16:29:37;;;;;;;9.90;6.97;;;8.70;99.90;;;;;;4963812;28;20043;-74
2023/04/20 16:32:03;;;;;;;10.27;7.45;;;8.60;99.90;;;;;;4966165;29;20035;-74
2023/04/20 16:34:30;;;;;;;10.40;7.07;;;8.70;99.90;;;;;;4967337;29;20110;-73
2023/04/20 16:36:56;;;;;;;9.10;6.45;;;8.70;99.90;;;;;;4966306;29;20074;-70
2023/04/20 16:39:22;;;;;;;8.77;6.93;;;8.60;99.90;;;;;;4967507;29;20031;-72
2023/04/20 16:41:47;;;;;;;9.80;6.80;;;8.60;99.90;;;;;;4967065;29;20023;-71
2023/04/20 16:44:14;;;;;;;9.70;7.32;;;8.60;99.90;;;;;;4949958;29;20387;-71
2023/04/20 16:46:43;;;;;;;10.40;7.70;;;8.50;99.90;;;;;;4967480;29;20035;-71
2023/04/20 16:49:09;;;;;;;10.85;7.68;;;8.50;99.90;;;;;;4967401;29;20047;-72
2023/04/20 16:51:34;;;;;;;8.68;6.95;;;8.50;99.90;;;;;;4949739;29;20035;-73
2023/04/20 16:54:00;;;;;;;9.73;7.07;;;8.50;99.90;;;;;;4966772;29;20098;-74
2023/04/20 16:56:26;;;;;;;9.23;6.70;;;8.40;99.90;;;;;;4958921;29;20409;-71
2023/04/20 16:58:52;;;;;;;8.35;6.57;;;8.50;99.90;;;;;;4966363;29;20023;-71
2023/04/20 17:01:18;;;;;;;9.45;7.32;;;8.50;99.90;;;;;;4965113;29;20217;-73
2023/04/20 17:03:43;;;;;;;8.90;7.07;;;8.50;99.90;;;;;;4966474;29;20103;-73
2023/04/20 17:06:09;;;;;;;9.68;6.82;;;8.30;99.90;;;;;;4966690;29;20027;-71
2023/04/20 17:08:38;;;;;;;15.45;13.00;;;8.30;99.90;;;;;;4966674;29;20030;-71
2023/04/20 17:11:05;;;;;;;11.48;7.75;;;8.40;99.90;;;;;;4965628;29;20126;-70
2023/04/20 17:13:32;;;;;;;11.90;9.05;;;8.40;99.90;;;;;;4966979;29;20031;-71
2023/04/20 17:15:59;;;;;;;13.30;10.10;;;8.30;99.90;;;;;;4939974;29;20375;-71
2023/04/20 17:18:24;;;;;;;9.18;7.72;;;8.30;99.90;;;;;;4953817;29;20043;-72
2023/04/20 17:20:51;;;;;;;11.60;8.50;;;8.30;99.90;;;;;;4966308;29;20035;-72
2023/04/20 17:23:17;;;;;;;12.23;8.82;;;8.40;99.90;;;;;;4966433;29;20092;-71
2023/04/20 17:25:44;;;;;;;12.05;8.70;;;8.50;99.90;;;;;;4966909;29;20038;-73
2023/04/20 17:28:10;;;;;;;12.82;9.10;;;8.50;99.90;;;;;;4966600;29;20047;-71
2023/04/20 17:30:36;;;;;;;11.60;8.75;;;8.50;99.90;;;;;;4966424;29;20039;-73
2023/04/20 17:33:02;;;;;;;12.57;8.27;;;8.60;99.90;;;;;;4965414;29;20050;-72
2023/04/20 17:35:28;;;;;;;10.45;7.95;;;8.60;99.90;;;;;;4966132;29;20090;-71
2023/04/20 17:37:53;;;;;;;14.50;8.13;;;8.60;99.90;;;;;;4965761;29;20034;-71
2023/04/20 17:40:19;;;;;;;10.05;7.80;;;8.60;99.90;;;;;;4949195;29;20151;-71
2023/04/20 17:42:45;;;;;;;12.15;8.98;;;8.60;99.90;;;;;;4966023;28;20106;-72
2023/04/20 17:45:11;;;;;;;12.52;8.63;;;8.60;99.90;;;;;;4966102;29;20050;-72
2023/04/20 17:47:37;;;;;;;11.75;8.40;;;8.50;99.90;;;;;;4966732;29;20055;-73
2023/04/20 17:50:06;;;;;;;10.85;7.95;;;8.50;99.90;;;;;;4964977;29;20027;-70
2023/04/20 17:52:31;;;;;;;10.90;8.05;;;8.50;99.90;;;;;;4966082;29;20216;-72
2023/04/20 17:54:58;;;;;;;11.73;8.55;;;8.60;99.90;;;;;;4959022;29;20020;-70